Language: 


Des rapports , des résumés tant et plus, au choix de chacun....


Données statistiques de la station
Quotidien Rapport Janvier 27, 2017 Unités:  Anglais    Métrique   les deux
« Précédent Jour
Suivant Jour »
Quotidien Hebdomadaire Mensuel Annuel Actuel
  Haut: Bas: Moyen:
Température: 44.2 °F 26.4 °F 36.1 °F
Pt de rosée: 36 °F 22.5 °F 29.7 °F
Humidité: 86 % 70 % 78 %
Vitesse du vent: 10.1 mph 0 mph 4.7 mph
Rafales: 13.2 mph - -
Vent:- - SSE
Pression: 30.1 in 29.9 in -
Précipitation: 0 in    
Historical Graphs
 
 
Données statistiques pour Janvier 27, 2017
Heure Température Point de rosée Pression Vent Vitesse du vent Refales Humidité Pluie (taux horaire)
00:02 28.6 °F 23.7 °F 30 in SSE 4.3 mph 5.8 mph 82 % 0 in
00:07 28.6 °F 24.1 °F 30.1 in SSE 1.6 mph 5.8 mph 83 % 0 in
00:12 28.2 °F 23.5 °F 30.1 in SSE 4.3 mph 5.6 mph 82 % 0 in
00:17 28 °F 23.4 °F 30.1 in SSE 3.4 mph 4.3 mph 82 % 0 in
00:22 27.9 °F 23.4 °F 30 in SSE 4.7 mph 5.6 mph 83 % 0 in
00:27 27.9 °F 23.4 °F 30 in SE 3.6 mph 6.5 mph 83 % 0 in
00:32 27.9 °F 23.4 °F 30 in SE 6.3 mph 6.5 mph 83 % 0 in
00:37 28 °F 23.5 °F 30 in SSE 3.4 mph 7.8 mph 83 % 0 in
00:42 28 °F 23.9 °F 30 in SSE 4.7 mph 8.7 mph 84 % 0 in
00:47 28 °F 23.9 °F 30 in SSE 5.6 mph 8.7 mph 84 % 0 in
00:53 28 °F 23.9 °F 30 in SE 4 mph 6.9 mph 84 % 0 in
00:58 28 °F 23.9 °F 30 in SSE 3.4 mph 6.3 mph 84 % 0 in
01:01 28 °F 23.9 °F 30 in South 4.3 mph 6.3 mph 84 % 0 in
01:03 27.9 °F 23.7 °F 30 in SSE 4.3 mph 6.3 mph 84 % 0 in
01:08 27.9 °F 23.4 °F 30 in ESE 3.1 mph 5.8 mph 83 % 0 in
01:13 27.9 °F 23.4 °F 30 in SE 2.9 mph 4.3 mph 83 % 0 in
01:18 27.9 °F 23.4 °F 30 in SSE 2 mph 4.3 mph 83 % 0 in
01:23 27.7 °F 23.2 °F 30 in ESE 2.9 mph 4.3 mph 83 % 0 in
01:28 27.3 °F 22.8 °F 30 in ESE 2.7 mph 4 mph 83 % 0 in
01:33 27.1 °F 22.8 °F 30 in SE 2.7 mph 4 mph 83 % 0 in
01:38 27.1 °F 22.8 °F 29.9 in SE 3.4 mph 4 mph 83 % 0 in
01:43 27.1 °F 23 °F 29.9 in SSE 2.7 mph 6 mph 84 % 0 in
01:48 27.1 °F 22.8 °F 29.9 in ESE 2.7 mph 6 mph 84 % 0 in
01:53 27.1 °F 22.8 °F 30 in Calm   3.4 mph 84 % 0 in
01:58 27 °F 22.6 °F 30 in SSE 2.7 mph 4 mph 84 % 0 in
02:03 27 °F 22.6 °F 30 in ESE 2.9 mph 4.7 mph 84 % 0 in
02:08 27 °F 22.6 °F 30 in ENE 2.7 mph 4.7 mph 84 % 0 in
02:13 26.8 °F 22.5 °F 30 in SSE 2.5 mph 3.6 mph 84 % 0 in
02:18 26.4 °F 22.5 °F 30 in SSE 2.7 mph 6.5 mph 84 % 0 in
02:23 27 °F 23 °F 30 in SSE 6.5 mph 8.1 mph 85 % 0 in
02:29 27.1 °F 23.2 °F 30 in SSE 7.4 mph 10.1 mph 85 % 0 in
02:34 27.1 °F 23.5 °F 30 in SSE 2.7 mph 10.1 mph 86 % 0 in
02:39 27.3 °F 23.7 °F 30 in SE 8.7 mph 9.8 mph 86 % 0 in
02:44 27.9 °F 24.1 °F 30 in SSE 4 mph 9.8 mph 86 % 0 in
02:49 27.9 °F 23.7 °F 30 in SE 4.3 mph 8.7 mph 85 % 0 in
02:54 27.9 °F 24.1 °F 29.9 in SSE 1.6 mph 10.1 mph 85 % 0 in
02:59 27.9 °F 24.1 °F 29.9 in South 6 mph 10.1 mph 85 % 0 in
03:04 27.9 °F 24.1 °F 29.9 in SSE 7.6 mph 10.5 mph 85 % 0 in
03:09 27.9 °F 24.1 °F 30 in SE 6.5 mph 8.7 mph 85 % 0 in
03:14 28.2 °F 24.4 °F 30 in ESE 7.4 mph 9.8 mph 85 % 0 in
03:19 28.6 °F 24.4 °F 30 in SE 6.5 mph 10.3 mph 85 % 0 in
03:24 28.6 °F 24.4 °F 30 in South 5.8 mph 10.3 mph 84 % 0 in
03:25 28.6 °F 24.4 °F 30 in South 7.2 mph 10.3 mph 84 % 0 in
03:30 28.8 °F 24.6 °F 30 in South 5.4 mph 10.5 mph 84 % 0 in
03:35 28.8 °F 24.6 °F 30 in SE 6.3 mph 10.5 mph 84 % 0 in
03:40 28.8 °F 24.3 °F 30 in SSE 6.3 mph 8.7 mph 83 % 0 in
03:45 28.9 °F 24.4 °F 30 in SE 5.4 mph 6.7 mph 83 % 0 in
03:50 28.9 °F 24.4 °F 30 in SE 4.3 mph 7.8 mph 83 % 0 in
03:55 28.9 °F 24.3 °F 29.9 in SE 5.4 mph 7.8 mph 82 % 0 in
04:00 28.9 °F 24.3 °F 29.9 in SE 6.5 mph 7.6 mph 82 % 0 in
04:05 28.9 °F 24.3 °F 29.9 in ESE 3.6 mph 6.5 mph 82 % 0 in
04:10 28.9 °F 24.3 °F 29.9 in ESE 4.9 mph 5.8 mph 82 % 0 in
04:16 28.9 °F 24.3 °F 29.9 in SSE 4.3 mph 6.5 mph 82 % 0 in
04:21 28.9 °F 24.3 °F 29.9 in SSE 1.6 mph 6.5 mph 82 % 0 in
04:25 28.9 °F 24.3 °F 29.9 in East 2.2 mph 4.7 mph 82 % 0 in
04:30 28.9 °F 24.3 °F 29.9 in SE 3.6 mph 4.7 mph 82 % 0 in
04:35 28.9 °F 24.3 °F 29.9 in ESE 3.6 mph 5.4 mph 82 % 0 in
04:36 28.9 °F 24.3 °F 29.9 in ESE 3.6 mph 5.4 mph 82 % 0 in
04:41 29.1 °F 24.4 °F 29.9 in SE 4.7 mph 5.8 mph 82 % 0 in
04:46 29.5 °F 24.8 °F 29.9 in SE 3.1 mph 5.8 mph 83 % 0 in
04:51 29.5 °F 24.8 °F 29.9 in East 2.9 mph 6 mph 83 % 0 in
04:56 29.5 °F 25 °F 29.9 in East 3.6 mph 6 mph 83 % 0 in
05:01 29.5 °F 25 °F 29.9 in East 2.5 mph 4.7 mph 83 % 0 in
05:06 29.5 °F 25 °F 29.9 in ENE 2.5 mph 3.8 mph 83 % 0 in
05:11 29.5 °F 25 °F 29.9 in East 4.9 mph 5.4 mph 83 % 0 in
05:16 29.5 °F 25 °F 29.9 in NE 6 mph 6.3 mph 83 % 0 in
05:21 29.5 °F 24.8 °F 29.9 in NE 4.7 mph 6.9 mph 83 % 0 in
05:26 29.1 °F 24.6 °F 29.9 in ESE 2.5 mph 6.9 mph 83 % 0 in
05:31 28.9 °F 24.4 °F 29.9 in East 4 mph 5.8 mph 83 % 0 in
05:36 28.8 °F 24.3 °F 29.9 in East 3.6 mph 5.8 mph 83 % 0 in
05:41 28.8 °F 24.3 °F 29.9 in ESE 5.4 mph 6.5 mph 83 % 0 in
05:46 28.8 °F 24.6 °F 29.9 in East 5.8 mph 6.9 mph 84 % 0 in
05:51 28.9 °F 24.8 °F 29.9 in East 4 mph 7.8 mph 84 % 0 in
05:56 28.9 °F 24.8 °F 29.9 in East 6 mph 8.1 mph 84 % 0 in
06:01 28.8 °F 24.3 °F 29.9 in ESE 7.6 mph 9.6 mph 83 % 0 in
06:06 28.8 °F 24.3 °F 29.9 in SE 7.6 mph 9.6 mph 83 % 0 in
06:11 28.8 °F 24.3 °F 29.9 in ESE 5.8 mph 9.2 mph 83 % 0 in
06:16 28.6 °F 24.1 °F 29.9 in ESE 3.4 mph 9.2 mph 83 % 0 in
06:21 28.6 °F 23.7 °F 29.9 in ESE 3.8 mph 6.3 mph 82 % 0 in
06:26 28.6 °F 24.1 °F 29.9 in ESE 2.5 mph 4.9 mph 83 % 0 in
06:31 28.6 °F 24.1 °F 29.9 in ESE 3.4 mph 4.9 mph 83 % 0 in
06:36 28.6 °F 24.1 °F 29.9 in ESE 4.7 mph 4.9 mph 83 % 0 in
06:47 28.8 °F 24.3 °F 29.9 in East 4 mph 4.5 mph 83 % 0 in
06:52 28.8 °F 24.3 °F 29.9 in ESE 4.3 mph 4.7 mph 83 % 0 in
06:57 28.9 °F 24.8 °F 29.9 in East 3.6 mph 5.8 mph 84 % 0 in
07:02 28.9 °F 24.8 °F 29.9 in SSE 3.8 mph 5.8 mph 84 % 0 in
07:07 29.1 °F 25 °F 29.9 in SSE 4.3 mph 5.4 mph 84 % 0 in
07:12 29.5 °F 24.8 °F 29.9 in ESE 2 mph 5.4 mph 83 % 0 in
07:17 29.5 °F 25 °F 29.9 in SSE 6.5 mph 6.5 mph 83 % 0 in
07:22 29.5 °F 25 °F 29.9 in SE 3.4 mph 6.5 mph 83 % 0 in
07:27 29.7 °F 25.2 °F 29.9 in SSE 3.4 mph 6.3 mph 83 % 0 in
07:32 29.7 °F 25.2 °F 29.9 in SSE 3.1 mph 4.7 mph 83 % 0 in
07:37 29.7 °F 25 °F 29.9 in SE 2.9 mph 6.5 mph 82 % 0 in
07:42 29.7 °F 25 °F 29.9 in SSE 3.8 mph 6.5 mph 82 % 0 in
07:47 29.7 °F 25 °F 29.9 in SSE 6.5 mph 6.5 mph 82 % 0 in
07:52 29.7 °F 25 °F 29.9 in SSE 2.9 mph 7.6 mph 82 % 0 in
07:57 29.5 °F 24.4 °F 29.9 in SE 3.4 mph 7.6 mph 81 % 0 in
08:02 29.5 °F 24.3 °F 29.9 in ENE 3.4 mph 5.6 mph 81 % 0 in
08:07 29.5 °F 24.3 °F 29.9 in SSE 2.5 mph 4.9 mph 81 % 0 in
08:12 29.1 °F 24.1 °F 29.9 in South 3.1 mph 4.9 mph 81 % 0 in
08:17 28.9 °F 23.9 °F 29.9 in SE 4.9 mph 4.9 mph 81 % 0 in
08:22 28.8 °F 23.7 °F 29.9 in South 2.5 mph 4.9 mph 81 % 0 in
08:27 28.8 °F 23.7 °F 29.9 in Calm   4.3 mph 81 % 0 in
08:32 28.6 °F 23.5 °F 29.9 in Calm   3.1 mph 81 % 0 in
08:37 28.6 °F 23.5 °F 29.9 in ESE 3.6 mph 4.3 mph 81 % 0 in
08:42 28.6 °F 23.5 °F 29.9 in SE 1.3 mph 4.7 mph 81 % 0 in
08:47 28.6 °F 23.7 °F 29.9 in SSE 2.9 mph 4.7 mph 82 % 0 in
08:52 28.2 °F 23.5 °F 29.9 in SSE 0.9 mph 3.4 mph 82 % 0 in
08:57 28.2 °F 23.5 °F 29.9 in Calm   3.4 mph 82 % 0 in
09:02 28.6 °F 24.1 °F 29.9 in Calm   3.4 mph 83 % 0 in
09:07 28.6 °F 24.1 °F 29.9 in ESE 1.6 mph 2.9 mph 83 % 0 in
09:08 28.6 °F 24.1 °F 29.9 in SSE 3.1 mph 3.1 mph 83 % 0 in
09:13 28.8 °F 24.3 °F 29.9 in SSE 3.6 mph 4.3 mph 83 % 0 in
09:18 28.9 °F 24.4 °F 29.9 in South 2 mph 4.3 mph 83 % 0 in
09:23 29.5 °F 25.2 °F 29.9 in SSE 2.7 mph 4.3 mph 84 % 0 in
09:28 29.5 °F 25.3 °F 29.9 in SSE 2 mph 4.9 mph 84 % 0 in
09:33 29.8 °F 25.5 °F 29.9 in South 1.3 mph 4.9 mph 84 % 0 in
09:38 30.2 °F 26.1 °F 29.9 in Calm   3.4 mph 84 % 0 in
09:43 30.4 °F 26.2 °F 29.9 in SSE 2.7 mph 3.1 mph 84 % 0 in
09:48 30.9 °F 26.8 °F 29.9 in Calm   3.1 mph 84 % 0 in
09:53 31.5 °F 27.1 °F 29.9 in SSE 2.7 mph 3.4 mph 84 % 0 in
09:58 32 °F 27.7 °F 29.9 in SSE 1.6 mph 3.4 mph 84 % 0 in
10:02 32.4 °F 28 °F 29.9 in South 2.5 mph 3.4 mph 84 % 0 in
10:07 32.7 °F 28.4 °F 29.9 in Calm   5.4 mph 84 % 0 in
10:12 33.1 °F 28.8 °F 29.9 in SSE 3.1 mph 5.4 mph 84 % 0 in
10:17 33.4 °F 29.1 °F 29.9 in South 2.5 mph 5.6 mph 84 % 0 in
10:22 33.6 °F 28.9 °F 29.9 in South 5.4 mph 6.3 mph 83 % 0 in
10:27 33.8 °F 28.9 °F 29.9 in South 3.4 mph 6.7 mph 82 % 0 in
10:32 34.2 °F 29.1 °F 29.9 in SSW 5.8 mph 8.5 mph 82 % 0 in
10:37 34.5 °F 29.7 °F 29.9 in South 3.8 mph 8.5 mph 82 % 0 in
10:42 35.2 °F 30.2 °F 29.9 in South 6.9 mph 8.5 mph 82 % 0 in
10:47 35.4 °F 30.4 °F 29.9 in South 4.3 mph 6.9 mph 81 % 0 in
10:52 35.8 °F 30 °F 29.9 in South 3.8 mph 6.3 mph 80 % 0 in
10:57 36.1 °F 30.2 °F 29.9 in South 6 mph 6.3 mph 79 % 0 in
11:02 36.3 °F 30.6 °F 29.9 in South 4.3 mph 7.8 mph 79 % 0 in
11:07 36.3 °F 30.2 °F 29.9 in South 7.4 mph 11.2 mph 78 % 0 in
11:08 36.3 °F 30.2 °F 29.9 in SSE 7.4 mph 11.2 mph 78 % 0 in
11:13 36.1 °F 29.7 °F 29.9 in South 7.6 mph 11.2 mph 77 % 0 in
11:18 36.1 °F 29.5 °F 29.9 in SSE 3.8 mph 10.1 mph 76 % 0 in
11:23 36.1 °F 29.5 °F 29.9 in SSW 2.9 mph 10.5 mph 77 % 0 in
11:28 36.1 °F 29.5 °F 29.9 in South 5.8 mph 10.5 mph 76 % 0 in
11:33 36.1 °F 29.7 °F 29.9 in SSE 4.3 mph 8.5 mph 77 % 0 in
11:38 36.1 °F 29.5 °F 29.9 in South 3.8 mph 7.8 mph 76 % 0 in
11:43 36.1 °F 29.5 °F 29.9 in SSE 3.8 mph 7.8 mph 76 % 0 in
11:48 36.3 °F 29.8 °F 29.9 in South 8.5 mph 9.2 mph 77 % 0 in
11:53 36.7 °F 30 °F 29.9 in SE 3.1 mph 9.2 mph 77 % 0 in
11:58 36.9 °F 30.4 °F 29.9 in South 5.4 mph 9.6 mph 77 % 0 in
12:03 37.2 °F 30.7 °F 29.9 in South 3.8 mph 9.6 mph 77 % 0 in
12:08 37.8 °F 31.3 °F 29.9 in SSE 5.6 mph 8.5 mph 77 % 0 in
12:13 37.9 °F 31.5 °F 29.9 in South 4.3 mph 12.3 mph 77 % 0 in
12:18 38.5 °F 31.8 °F 29.9 in SE 3.8 mph 12.3 mph 77 % 0 in
12:23 38.5 °F 31.5 °F 29.9 in SSW 5.4 mph 10.5 mph 76 % 0 in
12:28 38.5 °F 31.5 °F 29.9 in SSW 6 mph 9.2 mph 76 % 0 in
12:33 38.5 °F 31.6 °F 29.9 in South 4.3 mph 10.1 mph 76 % 0 in
12:38 38.7 °F 31.8 °F 29.9 in SSE 3.8 mph 10.1 mph 76 % 0 in
12:43 39 °F 32.2 °F 29.9 in SSE 4.3 mph 8.7 mph 76 % 0 in
12:48 39.6 °F 32.5 °F 29.9 in South 7.4 mph 8.7 mph 76 % 0 in
12:53 40.3 °F 33.3 °F 29.9 in South 6 mph 10.7 mph 76 % 0 in
12:58 40.6 °F 33.6 °F 29.9 in South 5.8 mph 10.7 mph 76 % 0 in
13:03 40.8 °F 33.4 °F 29.9 in South 3.4 mph 10.1 mph 75 % 0 in
13:08 41 °F 33.3 °F 29.9 in South 4.3 mph 10.1 mph 74 % 0 in
13:13 40.8 °F 33.3 °F 29.9 in SSW 3.4 mph 9.8 mph 74 % 0 in
13:18 40.8 °F 33.3 °F 29.9 in SSE 3.1 mph 8.5 mph 74 % 0 in
13:23 40.8 °F 33.3 °F 29.9 in SSE 3.8 mph 7.8 mph 74 % 0 in
13:28 41 °F 33.3 °F 29.9 in SSE 3.8 mph 9.6 mph 74 % 0 in
13:33 41 °F 33.1 °F 29.9 in SSE 7.8 mph 9.6 mph 73 % 0 in
13:38 41.2 °F 33.3 °F 29.9 in WSW 8.5 mph 10.1 mph 73 % 0 in
13:43 41.5 °F 33.4 °F 29.9 in South 3.1 mph 11 mph 73 % 0 in
13:48 41.9 °F 34 °F 29.9 in South 4.9 mph 11 mph 73 % 0 in
13:53 42.1 °F 34.3 °F 29.9 in South 7.6 mph 7.6 mph 74 % 0 in
13:58 42.3 °F 34.2 °F 29.9 in SSE 5.8 mph 8.5 mph 73 % 0 in
14:01 42.3 °F 34.2 °F 29.9 in South 5.6 mph 8.7 mph 73 % 0 in
14:06 42.6 °F 34.5 °F 29.9 in South 3.6 mph 8.7 mph 73 % 0 in
14:11 42.8 °F 34.7 °F 29.9 in South 5.4 mph 8.1 mph 73 % 0 in
14:16 43.3 °F 35.2 °F 29.9 in SSE 7.6 mph 8.1 mph 73 % 0 in
14:21 43.9 °F 35.4 °F 29.9 in South 4.3 mph 12.3 mph 72 % 0 in
14:26 44.2 °F 36 °F 29.9 in South 6 mph 12.3 mph 72 % 0 in
14:31 44.2 °F 35.4 °F 29.9 in SSW 4.3 mph 11 mph 71 % 0 in
14:36 44.2 °F 35.4 °F 29.9 in SSE 10.1 mph 11 mph 71 % 0 in
14:41 44.1 °F 35.2 °F 29.9 in South 9.4 mph 10.1 mph 71 % 0 in
14:46 44.1 °F 35.2 °F 29.9 in South 6.3 mph 10.3 mph 71 % 0 in
14:51 44.1 °F 34.9 °F 29.9 in South 6.5 mph 10.3 mph 70 % 0 in
14:56 44.1 °F 34.9 °F 29.9 in SSE 5.4 mph 13.2 mph 70 % 0 in
15:01 43.9 °F 35.1 °F 29.9 in South 2.9 mph 13.2 mph 71 % 0 in
15:06 43.9 °F 35.1 °F 29.9 in SSE 5.4 mph 10.3 mph 71 % 0 in
15:11 43.5 °F 34.9 °F 29.9 in SSE 3.4 mph 10.3 mph 71 % 0 in
15:16 43.5 °F 34.9 °F 29.9 in South 6 mph 8.1 mph 71 % 0 in
15:21 43.5 °F 34.7 °F 29.9 in SSE 6.5 mph 8.1 mph 71 % 0 in
15:26 43.5 °F 34.7 °F 29.9 in SSE 4.3 mph 10.1 mph 71 % 0 in
15:31 43.3 °F 34.5 °F 29.9 in SSE 6 mph 10.1 mph 71 % 0 in
15:36 43.3 °F 34.5 °F 29.9 in South 5.8 mph 8.5 mph 71 % 0 in
15:41 43.3 °F 34.9 °F 29.9 in SSE 6.5 mph 8.5 mph 72 % 0 in
15:46 43.3 °F 34.9 °F 29.9 in SSE 8.1 mph 9.6 mph 72 % 0 in
15:51 43.2 °F 34.7 °F 29.9 in SSE 7.8 mph 10.3 mph 72 % 0 in
15:56 43.2 °F 34.7 °F 29.9 in SSE 7.6 mph 10.3 mph 72 % 0 in
16:01 43.2 °F 35.1 °F 29.9 in SSE 7.4 mph 9.4 mph 73 % 0 in
16:06 43.2 °F 35.1 °F 29.9 in SSE 8.9 mph 8.9 mph 73 % 0 in
16:11 43.3 °F 35.2 °F 29.9 in SSE 6 mph 8.9 mph 73 % 0 in
16:16 43.2 °F 35.1 °F 29.9 in South 4.9 mph 10.1 mph 73 % 0 in
16:21 43.2 °F 35.1 °F 29.9 in South 7.4 mph 10.1 mph 73 % 0 in
16:26 43.2 °F 35.1 °F 29.9 in SSE 4.3 mph 10.5 mph 73 % 0 in
16:31 43.3 °F 35.2 °F 29.9 in SSE 6.9 mph 12.1 mph 73 % 0 in
16:36 43.3 °F 35.2 °F 29.9 in SSE 9.4 mph 12.1 mph 73 % 0 in
16:41 43.3 °F 35.2 °F 29.9 in SSE 6.3 mph 13 mph 73 % 0 in
16:46 43.3 °F 35.2 °F 29.9 in SSE 5.8 mph 13 mph 73 % 0 in
16:51 43.3 °F 35.2 °F 29.9 in SSE 6.5 mph 10.7 mph 73 % 0 in
16:56 43.3 °F 35.2 °F 29.9 in SSE 6 mph 9.8 mph 73 % 0 in
17:01 43.2 °F 35.1 °F 29.9 in SE 5.4 mph 9.6 mph 73 % 0 in
17:06 43 °F 34.9 °F 29.9 in SSE 6.5 mph 7.8 mph 73 % 0 in
17:11 42.8 °F 34.7 °F 29.9 in South 6 mph 9.2 mph 73 % 0 in
17:16 42.8 °F 34.7 °F 29.9 in ESE 5.4 mph 9.2 mph 73 % 0 in
17:21 42.8 °F 35.1 °F 29.9 in SSE 6.3 mph 7.6 mph 74 % 0 in
17:26 42.8 °F 35.1 °F 29.9 in SSE 4.7 mph 7.4 mph 74 % 0 in
17:31 42.8 °F 35.1 °F 29.9 in SSE 5.4 mph 8.1 mph 74 % 0 in
17:36 42.8 °F 35.1 °F 29.9 in SSE 5.8 mph 8.1 mph 74 % 0 in
17:41 42.8 °F 35.1 °F 29.9 in SSE 5.4 mph 7.6 mph 74 % 0 in
17:46 42.8 °F 35.1 °F 29.9 in SSE 5.4 mph 7.6 mph 74 % 0 in
17:56 42.8 °F 35.1 °F 29.9 in SSE 6 mph 8.1 mph 74 % 0 in
18:01 42.8 °F 35.4 °F 29.9 in SSE 5.6 mph 7.4 mph 75 % 0 in
18:02 42.8 °F 35.4 °F 29.9 in SSE 2.7 mph 7.4 mph 75 % 0 in
18:07 43 °F 35.6 °F 29.9 in SE 4.3 mph 7.8 mph 75 % 0 in
18:12 43 °F 35.2 °F 29.9 in South 3.8 mph 7.8 mph 74 % 0 in
18:17 43.2 °F 35.4 °F 29.9 in SE 4.9 mph 6.5 mph 74 % 0 in
18:22 43.3 °F 35.6 °F 29.9 in SSE 7.6 mph 7.6 mph 74 % 0 in
18:32 43.5 °F 35.8 °F 29.9 in SSE 4.3 mph 10.7 mph 74 % 0 in
18:37 43.5 °F 35.8 °F 29.9 in SSE 6.5 mph 8.7 mph 74 % 0 in
18:42 43.5 °F 36 °F 29.9 in SSE 6 mph 8.7 mph 74 % 0 in
18:47 43.5 °F 35.6 °F 29.9 in SE 9.8 mph 9.8 mph 73 % 0 in
18:52 43.9 °F 35.8 °F 29.9 in SE 5.8 mph 9.8 mph 73 % 0 in
18:57 43.9 °F 35.8 °F 29.9 in SSE 3.8 mph 8.7 mph 73 % 0 in
19:02 43.9 °F 35.8 °F 29.9 in South 7.2 mph 10.3 mph 73 % 0 in
19:07 44.1 °F 35.4 °F 29.9 in SSE 3.8 mph 10.3 mph 72 % 0 in
19:12 44.1 °F 35.4 °F 29.9 in SSE 5.6 mph 9.8 mph 72 % 0 in
19:17 44.2 °F 35.8 °F 29.9 in SSE 7.2 mph 8.1 mph 72 % 0 in
19:22 44.2 °F 35.8 °F 29.9 in SSE 5.4 mph 9.4 mph 72 % 0 in
19:27 44.2 °F 35.8 °F 29.9 in SSE 6.9 mph 9.4 mph 72 % 0 in
19:32 44.2 °F 35.4 °F 29.9 in SSE 7.6 mph 11 mph 71 % 0 in
19:37 44.2 °F 35.4 °F 29.9 in South 3.1 mph 11 mph 71 % 0 in
19:42 44.2 °F 35.4 °F 29.9 in SSE 8.5 mph 10.7 mph 71 % 0 in
19:47 44.2 °F 35.2 °F 29.9 in SSE 5.8 mph 10.7 mph 70 % 0 in
19:52 44.2 °F 35.2 °F 29.9 in SSE 5.8 mph 12.1 mph 70 % 0 in
19:57 44.2 °F 35.2 °F 29.9 in SSE 8.9 mph 12.1 mph 70 % 0 in
20:02 44.2 °F 35.2 °F 29.9 in SSE 3.1 mph 12.1 mph 70 % 0 in
20:07 44.2 °F 35.2 °F 29.9 in SSE 5.4 mph 9.6 mph 70 % 0 in
20:12 44.2 °F 35.1 °F 29.9 in SSE 6.3 mph 9.2 mph 70 % 0 in
20:17 44.2 °F 35.1 °F 29.9 in SSE 3.8 mph 9.2 mph 70 % 0 in
20:27 44.1 °F 34.9 °F 29.9 in SSE 4.7 mph 10.3 mph 70 % 0 in
20:32 44.1 °F 34.9 °F 29.9 in South 8.5 mph 8.5 mph 70 % 0 in
20:37 43.9 °F 34.7 °F 29.9 in SSE 7.2 mph 8.7 mph 70 % 0 in
20:42 43.9 °F 34.7 °F 29.9 in SE 4.3 mph 8.7 mph 70 % 0 in
20:47 43.9 °F 34.7 °F 29.9 in SE 5.6 mph 8.7 mph 70 % 0 in
20:52 43.5 °F 34.5 °F 29.9 in SE 2.9 mph 8.5 mph 70 % 0 in
20:57 43.5 °F 34.3 °F 29.9 in SSE 6.7 mph 8.5 mph 70 % 0 in
20:58 43.5 °F 34.3 °F 29.9 in SSE 6.3 mph 10.5 mph 70 % 0 in
21:03 43.5 °F 34.3 °F 29.9 in South 6.3 mph 10.5 mph 70 % 0 in
21:08 43.5 °F 34.7 °F 29.9 in SSW 6.5 mph 9.6 mph 71 % 0 in
21:13 43.3 °F 34.5 °F 29.9 in SSE 5.4 mph 11 mph 71 % 0 in
21:18 43.3 °F 34.5 °F 29.9 in South 4.3 mph 11 mph 71 % 0 in
21:23 43.3 °F 34.5 °F 29.9 in SSE 4.3 mph 11 mph 71 % 0 in
21:38 43.3 °F 34.5 °F 29.9 in SSE 8.1 mph 10.1 mph 71 % 0 in
21:43 43.5 °F 34.7 °F 29.9 in SSE 3.8 mph 11 mph 71 % 0 in
21:48 43.5 °F 34.7 °F 29.9 in SSE 5.8 mph 11 mph 71 % 0 in
21:53 43.5 °F 34.7 °F 29.9 in SE 5.8 mph 10.1 mph 71 % 0 in
21:54 43.5 °F 34.7 °F 29.9 in South 5.8 mph 10.1 mph 71 % 0 in
21:59 43.5 °F 34.7 °F 29.9 in South 2.9 mph 8.5 mph 71 % 0 in
22:04 43.3 °F 34.5 °F 29.9 in South 3.1 mph 8.1 mph 71 % 0 in
22:09 43.2 °F 34.3 °F 29.9 in SSE 3.4 mph 8.1 mph 71 % 0 in
22:19 43.2 °F 34.3 °F 29.9 in SSE 2.7 mph 7.8 mph 71 % 0 in
22:24 43.2 °F 34.3 °F 29.9 in East 2.5 mph 6 mph 71 % 0 in
22:29 43.2 °F 34.3 °F 29.9 in SSE 4 mph 6.3 mph 71 % 0 in
22:34 43 °F 34.2 °F 29.9 in South 5.8 mph 7.4 mph 71 % 0 in
22:39 42.8 °F 34 °F 29.9 in SSE 5.8 mph 10.1 mph 71 % 0 in
22:44 42.8 °F 34 °F 29.9 in SSE 2.7 mph 10.1 mph 71 % 0 in
22:49 43 °F 34.2 °F 29.9 in SSE 4 mph 8.5 mph 71 % 0 in
22:54 43 °F 34.2 °F 29.9 in SSE 8.1 mph 9.6 mph 71 % 0 in
23:00 43 °F 34.2 °F 29.9 in South 6 mph 9.8 mph 71 % 0 in
23:05 43 °F 34.2 °F 29.9 in SSE 8.5 mph 10.3 mph 71 % 0 in
23:10 42.8 °F 34 °F 29.9 in SSE 4.3 mph 10.3 mph 71 % 0 in
23:15 42.8 °F 34 °F 29.9 in SSE 5.4 mph 10.3 mph 71 % 0 in
23:20 42.8 °F 34 °F 29.9 in SSE 8.1 mph 8.5 mph 71 % 0 in
23:25 42.8 °F 34 °F 29.9 in South 3.8 mph 8.5 mph 71 % 0 in
23:30 42.6 °F 33.8 °F 29.9 in SSE 7.2 mph 8.5 mph 71 % 0 in
23:35 42.6 °F 33.8 °F 29.9 in SSE 3.1 mph 8.5 mph 71 % 0 in
23:40 42.6 °F 33.8 °F 29.9 in SSE 8.1 mph 8.1 mph 71 % 0 in
23:46 42.6 °F 33.8 °F 29.9 in SSE 3.8 mph 8.1 mph 71 % 0 in
23:51 42.6 °F 33.8 °F 29.9 in South 7.6 mph 7.6 mph 71 % 0 in
23:54 42.8 °F 34 °F 29.9 in SSE 4.3 mph 11 mph 71 % 0 in
23:55 42.6 °F 33.8 °F 29.9 in SE 6.3 mph 11 mph 71 % 0 in
23:58 42.8 °F 34 °F 29.9 in SSE 7.6 mph 11 mph 71 % 0 in
Le Gheer Warneton
Courtoisie de Weather Underground - 2.25 mb

Mise a jour : 18/12/2017 21:33:12
Généré par Cumulus 1.9.4 (1099)